LFOE 240430Z AUTO 27006KT 9000 OVC006 11/11 Q1029 TEMPO 0500 BCFG VV///

ElémentsDécodage
LFOE Station météo située sur l'aérodrome de EVREUX Fauville
240430Z émis le 24 du mois à 04h30 UTC
AUTO Bulletin édité par un automate
27006KT vent du 270°, 06 noeuds
9000 visibilité horizontale de 9000 mètres
OVC006 couverture nuageuse totale (8/8) à 600 pieds
11/11 température 11°C, point de rosée 11°C
 soit une humidité relative de 100%
Q1029 la pression au niveau de la mer (QNH) est de 1029 hPa
TEMPO fluctuation temporaire prévue
0500 visibilité horizontale de 500 mètres
BCFG bancs de brouillard
VV/// Visibilité verticale non disponible, le ciel n'est pas visible